createdAt,value
2022-12-05T00:06:32.212Z,999.62
2022-12-05T00:06:40.775Z,999.6
2022-12-05T00:10:02.662Z,999.56
2022-12-05T00:15:14.814Z,999.58
2022-12-05T00:20:02.382Z,999.57
2022-12-05T00:26:07.208Z,999.54
2022-12-05T00:34:27.506Z,999.63
2022-12-05T00:35:06.797Z,999.65
2022-12-05T00:40:01.449Z,999.61
2022-12-05T00:45:44.316Z,999.66
2022-12-05T00:50:12.031Z,999.66
2022-12-05T00:58:04.352Z,999.63
2022-12-05T01:00:49.091Z,999.64
2022-12-05T01:05:15.260Z,999.69
2022-12-05T01:10:58.233Z,999.62
2022-12-05T01:18:05.974Z,999.71
2022-12-05T01:22:16.796Z,999.73
2022-12-05T01:25:13.716Z,999.86
2022-12-05T01:35:39.193Z,999.9
2022-12-05T01:35:44.826Z,999.88
2022-12-05T01:40:17.299Z,999.97
2022-12-05T01:45:01.632Z,1000.02
2022-12-05T01:50:02.065Z,1000.03
2022-12-05T01:55:45.180Z,1000.06
2022-12-05T02:00:30.653Z,1000.08
2022-12-05T02:05:39.564Z,1000.04
2022-12-05T02:11:33.629Z,999.99
2022-12-05T02:16:58.015Z,1000.07
2022-12-05T02:22:44.551Z,1000.02
2022-12-05T02:25:15.533Z,1000.06
2022-12-05T02:31:36.503Z,1000.01
2022-12-05T02:35:30.822Z,1000
2022-12-05T02:42:56.236Z,1000
2022-12-05T02:45:01.518Z,1000.05
2022-12-05T02:50:46.453Z,999.97
2022-12-05T03:02:57.676Z,1000.02
2022-12-05T03:02:57.800Z,999.96
2022-12-05T03:09:02.756Z,999.97
2022-12-05T03:10:02.095Z,999.96
2022-12-05T03:15:02.977Z,999.99
2022-12-05T03:20:01.700Z,999.95
2022-12-05T03:26:06.099Z,1000.04
2022-12-05T03:30:32.900Z,1000.12
2022-12-05T03:43:19.629Z,1000.19
2022-12-05T03:43:24.422Z,1000.19
2022-12-05T03:49:02.866Z,1000.23
2022-12-05T03:50:04.298Z,1000.26
2022-12-05T03:56:17.693Z,1000.25
2022-12-05T04:05:00.312Z,1000.27
2022-12-05T04:05:01.230Z,1000.37
2022-12-05T04:11:57.784Z,1000.33
2022-12-05T04:19:24.472Z,1000.33
2022-12-05T04:20:10.841Z,1000.45
2022-12-05T04:30:46.158Z,1000.39
2022-12-05T04:40:20.819Z,1000.44
2022-12-05T04:40:21.561Z,1000.51
2022-12-05T04:40:24.569Z,1000.47
2022-12-05T04:45:10.869Z,1000.52
2022-12-05T04:50:11.688Z,1000.53
2022-12-05T04:55:15.495Z,1000.55
2022-12-05T05:02:52.105Z,1000.52
2022-12-05T05:05:01.634Z,1000.58
2022-12-05T05:11:21.160Z,1000.5
2022-12-05T05:15:05.908Z,1000.48
2022-12-05T05:20:20.157Z,1000.55
2022-12-05T05:30:45.876Z,1000.59
2022-12-05T05:30:55.729Z,1000.62
2022-12-05T05:35:11.235Z,1000.57
2022-12-05T05:40:15.003Z,1000.65
2022-12-05T05:48:10.624Z,1000.69
2022-12-05T05:51:14.454Z,1000.78
2022-12-05T05:55:42.296Z,1000.81
2022-12-05T06:00:46.787Z,1000.71
2022-12-05T06:11:27.151Z,1000.87
2022-12-05T06:11:28.440Z,1000.78
2022-12-05T06:16:20.892Z,1000.85
2022-12-05T06:20:01.582Z,1000.9
2022-12-05T06:26:11.317Z,1000.9
2022-12-05T06:33:40.127Z,1000.88
2022-12-05T06:36:30.944Z,1000.93
2022-12-05T06:40:20.889Z,1000.95
2022-12-05T06:45:07.205Z,1000.97
2022-12-05T06:50:01.555Z,1001.06
2022-12-05T06:55:01.714Z,1001.04
2022-12-05T07:00:01.983Z,1001.05
2022-12-05T07:05:01.800Z,1001.1
2022-12-05T07:10:03.885Z,1001.2
2022-12-05T07:15:54.739Z,1001.22
2022-12-05T07:20:07.055Z,1001.28
2022-12-05T07:25:01.743Z,1001.33
2022-12-05T07:34:11.063Z,1001.39
2022-12-05T07:35:15.204Z,1001.46
2022-12-05T07:40:31.893Z,1001.51
2022-12-05T07:47:42.762Z,1001.55
2022-12-05T07:58:00.915Z,1001.5
2022-12-05T08:00:55.454Z,1001.56
2022-12-05T08:01:09.786Z,1001.49
2022-12-05T08:05:48.155Z,1001.59
2022-12-05T08:10:01.715Z,1001.64
2022-12-05T08:15:21.026Z,1001.68
2022-12-05T08:22:17.274Z,1001.66
2022-12-05T08:30:25.809Z,1001.7
2022-12-05T08:30:25.812Z,1001.6
2022-12-05T08:40:01.800Z,1001.87
2022-12-05T08:41:26.727Z,1001.77
2022-12-05T08:50:02.522Z,1001.87
2022-12-05T08:50:06.961Z,1001.89
2022-12-05T08:55:01.977Z,1001.97
2022-12-05T09:00:01.851Z,1001.96
2022-12-05T09:05:19.431Z,1002.02
2022-12-05T09:10:10.072Z,1002.11
2022-12-05T09:15:01.996Z,1002.13
2022-12-05T09:20:02.077Z,1002.17
2022-12-05T09:26:43.600Z,1002.23
2022-12-05T09:30:57.897Z,1002.26
2022-12-05T09:36:17.662Z,1002.28
2022-12-05T09:41:45.232Z,1002.33
2022-12-05T09:45:23.815Z,1002.32
2022-12-05T09:50:02.006Z,1002.38
2022-12-05T10:00:23.122Z,1002.34
2022-12-05T10:00:23.123Z,1002.43
2022-12-05T10:05:10.843Z,1002.44
2022-12-05T10:10:30.046Z,1002.41
2022-12-05T10:15:10.677Z,1002.46
2022-12-05T10:37:43.672Z,1002.36
2022-12-05T10:37:52.472Z,1002.29
2022-12-05T10:40:38.624Z,1002.31
2022-12-05T10:45:04.719Z,1002.4
2022-12-05T10:50:20.122Z,1002.36
2022-12-05T10:55:26.593Z,1002.48
2022-12-05T11:00:20.501Z,1002.48
2022-12-05T11:05:04.743Z,1002.44
2022-12-05T11:10:35.862Z,1002.42
2022-12-05T11:15:02.267Z,1002.46
2022-12-05T11:20:02.824Z,1002.45
2022-12-05T11:30:04.885Z,1002.46
2022-12-05T11:35:08.510Z,1002.43
2022-12-05T11:40:11.022Z,1002.38
2022-12-05T11:42:57.393Z,1002.35
2022-12-05T11:45:07.921Z,1002.39
2022-12-05T11:50:23.736Z,1002.41
2022-12-05T12:10:16.083Z,1002.11
2022-12-05T12:15:31.555Z,1002.16
2022-12-05T12:20:01.817Z,1002.15
2022-12-05T12:25:15.190Z,1002.16
2022-12-05T12:30:02.222Z,1002.17
2022-12-05T12:35:10.482Z,1002.21
2022-12-05T12:40:14.960Z,1002.18
2022-12-05T12:45:16.145Z,1002.18
2022-12-05T12:50:09.582Z,1002.22
2022-12-05T12:55:04.660Z,1002.25
2022-12-05T13:02:47.040Z,1002.14
2022-12-05T13:05:01.589Z,1002.14
2022-12-05T13:10:17.540Z,1002.18
2022-12-05T13:16:49.161Z,1002.25
2022-12-05T13:20:01.587Z,1002.21
2022-12-05T13:35:35.022Z,1002.2
2022-12-05T13:40:02.203Z,1002.26
2022-12-05T13:45:31.257Z,1002.31
2022-12-05T13:50:01.662Z,1002.41
2022-12-05T13:55:15.182Z,1002.43
2022-12-05T14:00:06.578Z,1002.53
2022-12-05T14:05:03.513Z,1002.45
2022-12-05T14:11:13.950Z,1002.38
2022-12-05T14:15:10.255Z,1002.32
2022-12-05T14:20:43.079Z,1002.32
2022-12-05T14:25:01.328Z,1002.28
2022-12-05T14:30:16.476Z,1002.3
2022-12-05T14:35:02.186Z,1002.33
2022-12-05T14:40:02.253Z,1002.53
2022-12-05T14:45:02.045Z,1002.48
2022-12-05T14:50:04.427Z,1002.5
2022-12-05T14:55:14.393Z,1002.47
2022-12-05T15:00:02.010Z,1002.5
2022-12-05T15:05:20.301Z,1002.52
2022-12-05T15:10:10.243Z,1002.53
2022-12-05T15:15:01.901Z,1002.6
2022-12-05T15:20:09.768Z,1002.71
2022-12-05T15:25:01.781Z,1002.69
2022-12-05T15:30:11.565Z,1002.69
2022-12-05T15:40:14.656Z,1002.73
2022-12-05T15:50:01.896Z,1002.76
2022-12-05T15:55:06.938Z,1002.79
2022-12-05T16:00:02.004Z,1002.88
2022-12-05T16:25:02.092Z,1002.91
2022-12-05T16:30:01.845Z,1003.08
2022-12-05T16:35:02.124Z,1003.08
2022-12-05T16:40:02.121Z,1003.14
2022-12-05T16:45:02.240Z,1003.26
2022-12-05T16:50:02.197Z,1003.29
2022-12-05T16:55:58.475Z,1003.34
2022-12-05T17:00:01.744Z,1003.33
2022-12-05T17:05:02.075Z,1003.31
2022-12-05T17:10:01.296Z,1003.29
2022-12-05T17:15:03.170Z,1003.3
2022-12-05T17:20:02.063Z,1003.29
2022-12-05T17:25:01.709Z,1003.29
2022-12-05T17:30:07.156Z,1003.25
2022-12-05T17:35:06.583Z,1003.25
2022-12-05T17:40:01.801Z,1003.27
2022-12-05T17:45:01.968Z,1003.31
2022-12-05T17:50:01.559Z,1003.33
2022-12-05T17:55:01.631Z,1003.33
2022-12-05T18:00:01.429Z,1003.37
2022-12-05T18:05:01.609Z,1003.38
2022-12-05T18:10:01.787Z,1003.36
2022-12-05T18:15:01.796Z,1003.35
2022-12-05T18:20:01.799Z,1003.34
2022-12-05T18:25:02.187Z,1003.34
2022-12-05T18:30:01.679Z,1003.43
2022-12-05T18:35:02.336Z,1003.45
2022-12-05T18:40:01.674Z,1003.39
2022-12-05T18:45:02.100Z,1003.54
2022-12-05T18:50:01.760Z,1003.66
2022-12-05T18:55:16.817Z,1003.65
2022-12-05T19:00:01.526Z,1003.65
2022-12-05T19:05:01.621Z,1003.78
2022-12-05T19:10:01.583Z,1003.76
2022-12-05T19:15:01.878Z,1003.77
2022-12-05T19:20:01.487Z,1003.79
2022-12-05T19:25:01.873Z,1003.79
2022-12-05T19:30:06.418Z,1003.77
2022-12-05T19:35:01.487Z,1003.77
2022-12-05T19:40:01.540Z,1003.8
2022-12-05T19:45:07.709Z,1003.84
2022-12-05T19:50:01.799Z,1003.9
2022-12-05T19:55:01.564Z,1003.93
2022-12-05T20:00:01.802Z,1003.92
2022-12-05T20:05:01.708Z,1003.85
2022-12-05T20:10:01.968Z,1003.78
2022-12-05T20:15:02.266Z,1003.77
2022-12-05T20:20:01.930Z,1003.81
2022-12-05T20:25:01.659Z,1003.84
2022-12-05T20:30:01.846Z,1003.82
2022-12-05T20:35:01.477Z,1003.82
2022-12-05T20:40:01.503Z,1003.86
2022-12-05T20:45:01.596Z,1003.86
2022-12-05T20:50:02.046Z,1003.88
2022-12-05T20:55:01.957Z,1003.89
2022-12-05T21:00:02.030Z,1003.87
2022-12-05T21:05:02.161Z,1003.88
2022-12-05T21:10:07.670Z,1003.78
2022-12-05T21:15:02.151Z,1003.82
2022-12-05T21:20:01.901Z,1003.75
2022-12-05T21:25:01.700Z,1003.82
2022-12-05T21:30:01.899Z,1003.76
2022-12-05T21:35:01.736Z,1003.75
2022-12-05T21:40:01.843Z,1003.75
2022-12-05T21:45:01.706Z,1003.74
2022-12-05T21:50:02.148Z,1003.7
2022-12-05T21:55:01.309Z,1003.72
2022-12-05T22:00:02.211Z,1003.71
2022-12-05T22:05:01.875Z,1003.71
2022-12-05T22:10:01.958Z,1003.73
2022-12-05T22:15:01.742Z,1003.76
2022-12-05T22:20:01.905Z,1003.74
2022-12-05T22:25:02.017Z,1003.83
2022-12-05T22:30:02.397Z,1003.89
2022-12-05T22:35:03.978Z,1003.83
2022-12-05T22:40:02.330Z,1003.75
2022-12-05T22:45:01.517Z,1003.76
2022-12-05T22:50:01.825Z,1003.71
2022-12-05T22:55:01.370Z,1003.61
2022-12-05T23:00:01.521Z,1003.57
2022-12-05T23:05:02.235Z,1003.47
2022-12-05T23:10:01.466Z,1003.5
2022-12-05T23:15:02.247Z,1003.56
2022-12-05T23:20:02.174Z,1003.59
2022-12-05T23:25:01.871Z,1003.56
2022-12-05T23:30:01.811Z,1003.57
2022-12-05T23:35:01.515Z,1003.5
2022-12-05T23:40:02.177Z,1003.5
2022-12-05T23:45:01.940Z,1003.5
2022-12-05T23:50:01.949Z,1003.38
2022-12-05T23:55:01.647Z,1003.4
